createdAt,value
2018-10-01T00:01:03.186Z,100534.78
2018-10-01T00:03:31.555Z,100534.67
2018-10-01T00:06:00.389Z,100531.28
2018-10-01T00:08:28.717Z,100532.48
2018-10-01T00:10:57.050Z,100531.44
2018-10-01T00:13:25.382Z,100533.98
2018-10-01T00:15:53.694Z,100533.79
2018-10-01T00:18:22.081Z,100532.23
2018-10-01T00:20:55.825Z,100526.31
2018-10-01T00:23:24.155Z,100529.73
2018-10-01T00:25:52.484Z,100532.13
2018-10-01T00:28:20.916Z,100524.74
2018-10-01T00:30:49.244Z,100521.94
2018-10-01T00:33:17.756Z,100524.59
2018-10-01T00:35:46.082Z,100523.56
2018-10-01T00:38:15.420Z,100524.89
2018-10-01T00:40:43.749Z,100527.73
2018-10-01T00:43:12.090Z,100517.40
2018-10-01T00:45:40.432Z,100526.40
2018-10-01T00:48:08.760Z,100517.58
2018-10-01T00:50:37.990Z,100522.34
2018-10-01T00:53:08.836Z,100514.34
2018-10-01T00:55:39.664Z,100516.13
2018-10-01T00:58:08.684Z,100522.13
2018-10-01T01:00:38.741Z,100520.56
2018-10-01T01:03:08.216Z,100514.44
2018-10-01T01:05:38.493Z,100518.47
2018-10-01T01:08:08.658Z,100512.33
2018-10-01T01:10:39.364Z,100509.38
2018-10-01T01:13:10.002Z,100506.30
2018-10-01T01:15:39.045Z,100506.61
2018-10-01T01:18:08.421Z,100507.45
2018-10-01T01:20:38.363Z,100504.08
2018-10-01T01:23:07.825Z,100498.39
2018-10-01T01:25:38.081Z,100497.25
2018-10-01T01:28:07.497Z,100494.17
2018-10-01T01:30:37.906Z,100500.50
2018-10-01T01:33:07.537Z,100499.84
2018-10-01T01:35:36.909Z,100494.95
2018-10-01T01:38:06.828Z,100492.16
2018-10-01T01:40:37.265Z,100501.13
2018-10-01T01:43:07.253Z,100495.34
2018-10-01T01:45:37.621Z,100491.07
2018-10-01T01:48:07.181Z,100493.05
2018-10-01T01:50:37.296Z,100490.55
2018-10-01T01:53:10.181Z,100493.39
2018-10-01T01:55:40.861Z,100487.37
2018-10-01T01:58:09.545Z,100487.97
2018-10-01T02:00:40.313Z,100482.88
2018-10-01T02:03:09.580Z,100480.89
2018-10-01T02:05:39.945Z,100483.89
2018-10-01T02:08:09.180Z,100475.73
2018-10-01T02:10:39.970Z,100470.73
2018-10-01T02:13:09.385Z,100471.57
2018-10-01T02:15:40.109Z,100475.06
2018-10-01T02:18:09.473Z,100467.63
2018-10-01T02:20:38.371Z,100474.53
2018-10-01T02:23:08.737Z,100476.13
2018-10-01T02:25:38.768Z,100479.77
2018-10-01T02:28:08.197Z,100477.11
2018-10-01T02:30:37.258Z,100482.02
2018-10-01T02:33:06.174Z,100471.50
2018-10-01T02:35:34.501Z,100470.87
2018-10-01T02:38:02.840Z,100465.30
2018-10-01T02:40:32.221Z,100468.36
2018-10-01T02:43:00.925Z,100475.66
2018-10-01T02:45:29.933Z,100475.80
2018-10-01T02:47:58.311Z,100474.68
2018-10-01T02:50:26.730Z,100468.02
2018-10-01T02:53:01.057Z,100468.70
2018-10-01T02:55:29.412Z,100472.66
2018-10-01T02:57:58.608Z,100467.77
2018-10-01T03:00:26.965Z,100467.77
2018-10-01T03:02:56.201Z,100461.55
2018-10-01T03:05:24.783Z,100460.23
2018-10-01T03:07:53.118Z,100452.66
2018-10-01T03:10:21.445Z,100448.25
2018-10-01T03:12:49.801Z,100446.23
2018-10-01T03:15:18.466Z,100437.11
2018-10-01T03:17:46.862Z,100440.56
2018-10-01T03:20:15.258Z,100441.85
2018-10-01T03:22:43.648Z,100449.45
2018-10-01T03:25:11.973Z,100445.59
2018-10-01T03:27:40.301Z,100445.03
2018-10-01T03:30:10.865Z,100440.70
2018-10-01T03:32:39.675Z,100436.38
2018-10-01T03:35:08.842Z,100437.91
2018-10-01T03:37:38.114Z,100432.34
2018-10-01T03:40:07.758Z,100432.03
2018-10-01T03:42:37.001Z,100433.19
2018-10-01T03:45:06.622Z,100428.84
2018-10-01T03:47:34.956Z,100432.88
2018-10-01T03:50:03.672Z,100431.20
2018-10-01T03:52:33.113Z,100435.52
2018-10-01T03:55:03.347Z,100437.58
2018-10-01T03:57:32.525Z,100439.27
2018-10-01T04:00:01.809Z,100432.31
2018-10-01T04:02:31.772Z,100430.52
2018-10-01T04:05:00.135Z,100428.66
2018-10-01T04:07:28.514Z,100425.32
2018-10-01T04:09:56.841Z,100430.27
2018-10-01T04:12:25.172Z,100428.66
2018-10-01T04:14:53.527Z,100429.59
2018-10-01T04:17:21.857Z,100431.69
2018-10-01T04:19:50.180Z,100425.77
2018-10-01T04:22:22.497Z,100426.52
2018-10-01T04:24:50.829Z,100433.91
2018-10-01T04:27:19.250Z,100441.13
2018-10-01T04:29:47.597Z,100435.02
2018-10-01T04:32:15.955Z,100436.44
2018-10-01T04:34:44.345Z,100439.55
2018-10-01T04:37:12.673Z,100435.28
2018-10-01T04:39:41.001Z,100442.05
2018-10-01T04:42:09.547Z,100445.11
2018-10-01T04:44:38.629Z,100441.47
2018-10-01T04:47:07.670Z,100444.42
2018-10-01T04:49:36.183Z,100434.93
2018-10-01T04:52:04.539Z,100439.78
2018-10-01T04:54:33.261Z,100442.00
2018-10-01T04:57:02.229Z,100438.79
2018-10-01T04:59:31.045Z,100439.69
2018-10-01T05:01:59.529Z,100442.66
2018-10-01T05:04:27.863Z,100446.01
2018-10-01T05:06:56.225Z,100447.83
2018-10-01T05:09:24.614Z,100441.67
2018-10-01T05:11:52.987Z,100443.20
2018-10-01T05:14:21.373Z,100446.77
2018-10-01T05:16:49.700Z,100444.50
2018-10-01T05:19:18.047Z,100451.14
2018-10-01T05:21:46.404Z,100446.47
2018-10-01T05:24:14.756Z,100450.85
2018-10-01T05:26:43.099Z,100452.44
2018-10-01T05:29:11.437Z,100447.95
2018-10-01T05:31:40.132Z,100454.14
2018-10-01T05:34:09.804Z,100453.75
2018-10-01T05:36:39.889Z,100446.39
2018-10-01T05:39:09.882Z,100454.06
2018-10-01T05:41:39.434Z,100456.20
2018-10-01T05:44:08.623Z,100463.73
2018-10-01T05:46:37.863Z,100468.67
2018-10-01T05:49:07.735Z,100463.34
2018-10-01T05:51:37.150Z,100460.48
2018-10-01T05:54:06.108Z,100466.86
2018-10-01T05:56:34.457Z,100473.72
2018-10-01T05:59:02.853Z,100473.41
2018-10-01T06:01:32.086Z,100472.51
2018-10-01T06:04:01.090Z,100485.59
2018-10-01T06:06:31.016Z,100487.42
2018-10-01T06:09:00.937Z,100489.41
2018-10-01T06:11:29.253Z,100490.77
2018-10-01T06:13:58.613Z,100489.83
2018-10-01T06:16:26.934Z,100493.69
2018-10-01T06:18:55.261Z,100501.28
2018-10-01T06:21:23.805Z,100499.20
2018-10-01T06:23:52.144Z,100507.21
2018-10-01T06:26:20.789Z,100497.94
2018-10-01T06:28:49.142Z,100497.64
2018-10-01T06:31:17.472Z,100491.53
2018-10-01T06:33:46.813Z,100498.71
2018-10-01T06:36:15.202Z,100494.80
2018-10-01T06:38:43.502Z,100491.80
2018-10-01T06:41:12.161Z,100488.88
2018-10-01T06:43:40.491Z,100486.33
2018-10-01T06:46:08.818Z,100492.56
2018-10-01T06:48:38.290Z,100486.38
2018-10-01T06:51:06.939Z,100494.13
2018-10-01T06:53:36.256Z,100488.45
2018-10-01T06:56:04.589Z,100499.97
2018-10-01T06:58:32.913Z,100491.44
2018-10-01T07:01:01.996Z,100497.94
2018-10-01T07:03:31.620Z,100494.39
2018-10-01T07:06:00.337Z,100483.16
2018-10-01T07:08:30.478Z,100498.19
2018-10-01T07:11:00.145Z,100497.16
2018-10-01T07:13:28.773Z,100502.53
2018-10-01T07:15:57.133Z,100501.16
2018-10-01T07:18:25.466Z,100497.16
2018-10-01T07:20:54.840Z,100507.89
2018-10-01T07:23:23.311Z,100510.57
2018-10-01T07:25:51.521Z,100516.39
2018-10-01T07:28:20.752Z,100515.28
2018-10-01T07:30:50.113Z,100509.44
2018-10-01T07:33:18.440Z,100517.42
2018-10-01T07:35:46.807Z,100516.39
2018-10-01T07:38:15.204Z,100515.59
2018-10-01T07:40:43.537Z,100523.75
2018-10-01T07:43:11.921Z,100521.25
2018-10-01T07:45:40.263Z,100512.93
2018-10-01T07:48:09.529Z,100517.19
2018-10-01T07:50:38.818Z,100512.20
2018-10-01T07:53:08.188Z,100513.16
2018-10-01T07:55:38.349Z,100519.66
2018-10-01T07:58:06.697Z,100517.17
2018-10-01T08:00:37.150Z,100515.28
2018-10-01T08:03:06.961Z,100513.66
2018-10-01T08:05:36.853Z,77566.48
2018-10-01T08:08:06.758Z,77555.47
2018-10-01T08:10:36.930Z,77569.48
2018-10-01T08:13:07.673Z,77528.45
2018-10-01T08:15:38.064Z,77527.45
2018-10-01T08:18:08.319Z,77497.42
2018-10-01T08:20:39.013Z,77489.41
2018-10-01T08:23:08.865Z,77509.43
2018-10-01T08:25:39.163Z,77496.42
2018-10-01T08:28:08.160Z,77477.39
2018-10-01T08:30:37.224Z,77458.38
2018-10-01T08:33:06.159Z,77453.38
2018-10-01T08:35:34.531Z,77447.37
2018-10-01T08:38:02.899Z,77471.39
2018-10-01T08:40:33.098Z,77471.39
2018-10-01T08:43:02.969Z,77495.41
2018-10-01T08:45:32.144Z,77503.42
2018-10-01T08:48:02.121Z,77513.44
2018-10-01T08:50:39.905Z,77516.44
2018-10-01T08:53:13.854Z,77511.43
2018-10-01T08:55:43.237Z,77498.42
2018-10-01T08:58:11.785Z,77498.42
2018-10-01T09:00:41.130Z,77497.42
2018-10-01T09:03:09.489Z,77503.42
2018-10-01T09:05:39.296Z,77477.39
2018-10-01T09:08:08.892Z,77453.38
2018-10-01T09:10:38.893Z,77427.34
2018-10-01T09:13:08.871Z,77401.33
2018-10-01T09:15:38.773Z,77385.31
2018-10-01T09:18:09.121Z,77377.30
2018-10-01T09:20:39.560Z,77342.27
2018-10-01T09:23:09.915Z,77341.27
2018-10-01T09:25:39.918Z,77331.26
2018-10-01T09:28:08.901Z,77325.25
2018-10-01T09:30:38.323Z,77319.25
2018-10-01T09:33:08.989Z,77313.23
2018-10-01T09:35:38.385Z,77310.23
2018-10-01T09:38:06.785Z,77309.23
2018-10-01T09:40:35.203Z,77309.23
2018-10-01T09:43:03.528Z,77294.22
2018-10-01T09:45:32.452Z,77287.22
2018-10-01T09:48:02.461Z,77310.23
2018-10-01T09:50:31.334Z,77303.23
2018-10-01T09:53:00.151Z,77321.25
2018-10-01T09:55:29.401Z,77307.23
2018-10-01T09:57:59.488Z,77288.22
2018-10-01T10:01:37.400Z,77260.19
2018-10-01T10:04:05.872Z,77248.18
2018-10-01T10:06:34.148Z,77253.19
2018-10-01T10:09:03.001Z,77249.18
2018-10-01T10:11:32.243Z,77221.16
2018-10-01T10:14:01.256Z,77213.15
2018-10-01T10:16:31.220Z,77202.14
2018-10-01T10:19:01.237Z,77199.14
2018-10-01T10:21:30.487Z,77172.11
2018-10-01T10:23:58.820Z,77163.10
2018-10-01T10:26:27.161Z,77133.08
2018-10-01T10:28:55.515Z,77134.08
2018-10-01T10:31:23.845Z,77123.06
2018-10-01T10:33:53.073Z,77122.06
2018-10-01T10:36:21.410Z,77123.06
2018-10-01T10:38:49.870Z,77120.06
2018-10-01T10:41:18.228Z,77122.06
2018-10-01T10:43:46.641Z,77108.05
2018-10-01T10:46:15.054Z,77090.03
2018-10-01T10:48:43.401Z,77091.03
2018-10-01T10:51:12.004Z,77093.04
2018-10-01T10:53:40.578Z,77058.01
2018-10-01T10:56:09.023Z,77060.02
2018-10-01T10:58:38.049Z,77049.00
2018-10-01T11:01:07.181Z,77038.99
2018-10-01T11:03:36.240Z,77015.97
2018-10-01T11:06:06.227Z,77001.96
2018-10-01T11:08:34.690Z,76987.95
2018-10-01T11:11:03.085Z,76967.94
2018-10-01T11:13:32.108Z,76962.93
2018-10-01T11:16:01.421Z,77007.97
2018-10-01T11:18:30.233Z,76984.95
2018-10-01T11:20:58.638Z,76975.94
2018-10-01T11:23:26.993Z,76976.94
2018-10-01T11:25:56.265Z,76969.94
2018-10-01T11:28:24.654Z,76966.93
2018-10-01T11:30:53.081Z,76975.94
2018-10-01T11:33:21.611Z,77007.97
2018-10-01T11:35:49.950Z,76987.95
2018-10-01T11:38:19.541Z,76967.94
2018-10-01T11:40:47.894Z,76954.92
2018-10-01T11:43:16.238Z,76962.93
2018-10-01T11:45:45.804Z,76955.92
2018-10-01T11:48:15.011Z,76951.92
2018-10-01T11:50:43.475Z,76966.93
2018-10-01T11:53:11.889Z,76967.94
2018-10-01T11:55:40.225Z,76940.91
2018-10-01T11:58:09.961Z,76945.91
2018-10-01T12:00:38.853Z,76984.95
2018-10-01T12:03:08.071Z,76997.96
2018-10-01T12:05:38.136Z,77015.97
2018-10-01T12:08:07.229Z,77035.99
2018-10-01T12:10:37.195Z,77052.00
2018-10-01T12:13:06.059Z,77069.02
2018-10-01T12:15:37.110Z,77046.00
2018-10-01T12:18:07.113Z,77050.00
2018-10-01T12:20:37.090Z,77057.01
2018-10-01T12:23:06.105Z,77049.00
2018-10-01T12:25:34.427Z,77063.02
2018-10-01T12:28:03.525Z,77067.02
2018-10-01T12:30:32.460Z,77063.02
2018-10-01T12:33:01.337Z,77103.05
2018-10-01T12:35:31.397Z,77098.05
2018-10-01T12:38:00.288Z,77126.07
2018-10-01T12:40:28.741Z,77135.08
2018-10-01T12:42:57.963Z,77149.09
2018-10-01T12:45:27.271Z,77115.06
2018-10-01T12:47:56.456Z,77089.03
2018-10-01T12:50:24.913Z,77071.02
2018-10-01T12:52:53.210Z,77051.00
2018-10-01T12:55:22.438Z,77073.02
2018-10-01T12:57:50.781Z,77050.00
2018-10-01T13:00:19.125Z,77043.00
2018-10-01T13:02:47.467Z,77061.02
2018-10-01T13:05:15.895Z,77059.01
2018-10-01T13:07:45.401Z,77059.01
2018-10-01T13:10:14.313Z,77087.03
2018-10-01T13:12:43.577Z,77087.03
2018-10-01T13:15:11.973Z,77076.02
2018-10-01T13:17:40.321Z,77063.02
2018-10-01T13:20:09.156Z,77053.00
2018-10-01T13:22:38.124Z,77078.03
2018-10-01T13:25:07.346Z,77079.03
2018-10-01T13:27:37.246Z,77079.03
2018-10-01T13:30:08.339Z,77065.02
2018-10-01T13:32:38.408Z,77061.02
2018-10-01T13:35:07.207Z,77055.01
2018-10-01T13:37:37.329Z,77086.03
2018-10-01T13:40:07.147Z,77095.05
2018-10-01T13:42:36.204Z,77104.05
2018-10-01T13:45:04.643Z,77102.05
2018-10-01T13:47:34.373Z,77104.05
2018-10-01T13:50:03.605Z,77109.05
2018-10-01T13:52:33.379Z,77137.08
2018-10-01T13:55:02.308Z,77136.08
2018-10-01T13:57:32.278Z,77133.08
2018-10-01T14:00:01.312Z,77163.10
2018-10-01T14:02:31.321Z,77160.09
2018-10-01T14:05:01.402Z,77182.12
2018-10-01T14:07:31.607Z,77169.11
2018-10-01T14:10:01.489Z,77173.11
2018-10-01T14:12:31.345Z,77169.11
2018-10-01T14:15:00.357Z,77174.11
2018-10-01T14:17:28.728Z,77158.09
2018-10-01T14:19:58.261Z,77178.11
2018-10-01T14:22:27.525Z,77168.11
2018-10-01T14:24:55.936Z,77171.11
2018-10-01T14:27:24.288Z,77163.10
2018-10-01T14:29:53.666Z,77168.11
2018-10-01T14:32:21.997Z,77138.08
2018-10-01T14:34:51.298Z,77123.06
2018-10-01T14:37:19.633Z,77136.08
2018-10-01T14:39:48.002Z,77119.06
2018-10-01T14:42:16.451Z,77134.08
2018-10-01T14:44:45.708Z,77133.08
2018-10-01T14:47:14.037Z,77150.09
2018-10-01T14:49:43.395Z,77138.08
2018-10-01T14:52:11.729Z,77159.09
2018-10-01T14:54:40.068Z,77174.11
2018-10-01T14:57:09.051Z,77201.14
2018-10-01T14:59:38.192Z,77257.19
2018-10-01T15:02:09.943Z,77311.23
2018-10-01T15:04:39.531Z,77349.27
2018-10-01T15:07:08.648Z,77374.30
2018-10-01T15:09:38.014Z,77399.32
2018-10-01T15:12:07.340Z,77457.38
2018-10-01T15:14:36.242Z,77487.41
2018-10-01T15:17:04.594Z,77507.42
2018-10-01T15:19:33.500Z,77541.46
2018-10-01T15:22:02.788Z,77555.47
2018-10-01T15:24:31.492Z,77565.48
2018-10-01T15:27:01.469Z,77558.48
2018-10-01T15:29:30.418Z,77547.47
2018-10-01T15:31:58.833Z,77542.46
2018-10-01T15:34:28.305Z,77563.48
2018-10-01T15:36:56.647Z,77565.48
2018-10-01T15:39:24.986Z,77555.47
2018-10-01T15:41:53.749Z,77565.48
2018-10-01T15:44:22.126Z,77571.48
2018-10-01T15:46:50.469Z,77557.48
2018-10-01T15:49:18.814Z,77558.48
2018-10-01T15:51:47.133Z,77561.48
2018-10-01T15:54:16.466Z,77551.47
2018-10-01T15:56:45.007Z,77568.48
2018-10-01T15:59:14.338Z,77567.48
2018-10-01T16:01:43.615Z,77556.48
2018-10-01T16:04:12.821Z,77571.48
2018-10-01T16:06:42.179Z,77584.50
2018-10-01T16:09:11.513Z,77584.50
2018-10-01T16:11:40.041Z,77582.50
2018-10-01T16:14:08.929Z,77589.52
2018-10-01T16:16:39.101Z,77603.52
2018-10-01T16:19:08.010Z,77618.54
2018-10-01T16:21:36.998Z,77621.55
2018-10-01T16:24:06.579Z,77635.55
2018-10-01T16:26:34.922Z,77661.58
2018-10-01T16:29:03.626Z,77657.58
2018-10-01T16:31:33.710Z,77672.59
2018-10-01T16:34:02.675Z,77681.61
2018-10-01T16:36:31.504Z,77673.59
2018-10-01T16:39:00.524Z,77703.63
2018-10-01T16:41:28.861Z,77701.63
2018-10-01T16:43:57.203Z,77714.64
2018-10-01T16:46:25.622Z,77739.66
2018-10-01T16:48:54.023Z,77750.67
2018-10-01T16:51:22.419Z,77773.70
2018-10-01T16:53:50.742Z,77779.71
2018-10-01T16:56:20.078Z,77805.73
2018-10-01T16:58:48.472Z,77780.71
2018-10-01T17:01:16.804Z,77800.73
2018-10-01T17:03:45.127Z,77823.75
2018-10-01T17:06:13.471Z,77835.77
2018-10-01T17:08:41.801Z,77851.78
2018-10-01T17:11:10.264Z,77853.79
2018-10-01T17:13:39.953Z,77860.80
2018-10-01T17:16:09.012Z,77849.78
2018-10-01T17:18:37.996Z,77858.80
2018-10-01T17:21:07.296Z,77861.80
2018-10-01T17:23:37.148Z,77872.81
2018-10-01T17:26:06.185Z,77870.81
2018-10-01T17:28:34.609Z,77895.84
2018-10-01T17:31:03.645Z,77907.84
2018-10-01T17:33:32.604Z,77911.85
2018-10-01T17:36:01.689Z,77900.84
2018-10-01T17:38:30.605Z,77910.85
2018-10-01T17:40:59.005Z,77899.84
2018-10-01T17:43:27.366Z,77905.84
2018-10-01T17:45:55.769Z,77891.83
2018-10-01T17:48:24.362Z,77903.84
2018-10-01T17:50:52.701Z,77899.84
2018-10-01T17:53:21.034Z,77927.88
2018-10-01T17:55:49.414Z,77934.88
2018-10-01T17:58:18.119Z,77947.89
2018-10-01T18:00:46.487Z,77955.91
2018-10-01T18:03:15.733Z,77959.91
2018-10-01T18:05:45.148Z,77973.92
2018-10-01T18:08:13.764Z,77992.95
2018-10-01T18:10:43.118Z,77988.94
2018-10-01T18:13:11.470Z,78001.95
2018-10-01T18:15:39.877Z,78005.95
2018-10-01T18:18:09.323Z,77994.95
2018-10-01T18:20:38.470Z,77992.95
2018-10-01T18:23:08.639Z,78008.96
2018-10-01T18:25:37.959Z,78004.95
2018-10-01T18:28:07.212Z,78010.97
2018-10-01T18:30:36.258Z,78009.97
2018-10-01T18:33:04.637Z,78018.97
2018-10-01T18:35:34.796Z,78009.97
2018-10-01T18:38:03.169Z,78026.98
2018-10-01T18:40:32.539Z,78021.98
2018-10-01T18:43:01.653Z,78022.98
2018-10-01T18:45:30.520Z,78016.97
2018-10-01T18:47:58.909Z,78012.97
2018-10-01T18:50:27.238Z,78010.97
2018-10-01T18:52:56.597Z,77997.95
2018-10-01T18:55:24.937Z,77993.95
2018-10-01T18:57:53.337Z,77988.94
2018-10-01T19:00:21.713Z,77967.92
2018-10-01T19:02:51.010Z,77959.91
2018-10-01T19:05:19.459Z,77939.88
2018-10-01T19:07:48.773Z,77928.88
2018-10-01T19:10:17.277Z,77914.86
2018-10-01T19:12:46.696Z,77907.84
2018-10-01T19:15:15.029Z,77921.86
2018-10-01T19:17:43.620Z,77945.89
2018-10-01T19:20:11.949Z,77949.89
2018-10-01T19:22:40.357Z,77955.91
2018-10-01T19:25:09.320Z,77950.89
2018-10-01T19:27:38.661Z,77963.91
2018-10-01T19:30:07.701Z,77959.91
2018-10-01T19:32:37.081Z,77971.92
2018-10-01T19:35:06.318Z,77970.92
2018-10-01T19:37:34.723Z,77985.94
2018-10-01T19:40:03.749Z,78005.95
2018-10-01T19:42:34.389Z,78003.95
2018-10-01T19:45:03.355Z,78013.97
2018-10-01T19:47:32.609Z,78018.97
2018-10-01T19:50:02.546Z,78023.98
2018-10-01T19:52:31.581Z,78031.98
2018-10-01T19:55:00.619Z,78019.97
2018-10-01T19:57:28.942Z,78028.98
2018-10-01T19:59:57.330Z,78028.98
2018-10-01T20:02:25.653Z,78044.00
2018-10-01T20:04:55.211Z,78048.00
2018-10-01T20:07:23.573Z,78043.00
2018-10-01T20:09:51.982Z,78025.98
2018-10-01T20:12:20.385Z,78040.00
2018-10-01T20:14:49.731Z,78030.98
2018-10-01T20:17:18.118Z,78049.01
2018-10-01T20:19:46.970Z,78050.01
2018-10-01T20:22:15.412Z,78051.01
2018-10-01T20:24:44.702Z,78049.01
2018-10-01T20:27:13.388Z,78056.02
2018-10-01T20:29:42.674Z,78055.02
2018-10-01T20:32:10.888Z,78055.02
2018-10-01T20:34:39.241Z,78051.01
2018-10-01T20:37:08.752Z,78042.00
2018-10-01T20:39:37.797Z,78036.99
2018-10-01T20:42:07.180Z,78024.98
2018-10-01T20:44:36.281Z,78025.98
2018-10-01T20:47:06.155Z,78033.98
2018-10-01T20:49:34.549Z,78025.98
2018-10-01T20:52:03.075Z,78042.00
2018-10-01T20:54:32.169Z,78040.00
2018-10-01T20:57:01.179Z,78048.00
2018-10-01T20:59:31.217Z,78041.00
2018-10-01T21:01:59.593Z,78024.98
2018-10-01T21:04:27.972Z,78023.98
2018-10-01T21:06:57.318Z,78030.98
2018-10-01T21:09:25.646Z,78027.98
2018-10-01T21:11:54.035Z,78036.99
2018-10-01T21:14:22.472Z,78029.98
2018-10-01T21:16:52.522Z,78031.98
2018-10-01T21:19:21.976Z,78035.99
2018-10-01T21:21:51.278Z,78033.98
2018-10-01T21:24:19.606Z,78035.99
2018-10-01T21:26:48.037Z,78027.98
2018-10-01T21:29:16.417Z,78029.98
2018-10-01T21:31:44.772Z,78041.00
2018-10-01T21:34:14.241Z,78025.98
2018-10-01T21:36:43.540Z,78029.98
2018-10-01T21:39:21.781Z,78024.98
2018-10-01T21:41:51.276Z,78030.98
2018-10-01T21:44:19.705Z,78031.98
2018-10-01T21:46:48.099Z,78019.97
2018-10-01T21:49:16.585Z,78033.98
2018-10-01T21:51:44.947Z,78039.00
2018-10-01T21:54:14.189Z,78042.00
2018-10-01T21:56:42.521Z,78056.02
2018-10-01T21:59:10.861Z,78063.02
2018-10-01T22:01:40.811Z,78074.04
2018-10-01T22:04:09.325Z,78085.05
2018-10-01T22:06:38.681Z,78100.06
2018-10-01T22:09:08.393Z,78123.09
2018-10-01T22:11:36.720Z,78132.11
2018-10-01T22:14:07.101Z,78141.11
2018-10-01T22:16:36.536Z,78156.13
2018-10-01T22:19:04.875Z,78172.16
2018-10-01T22:21:34.209Z,78179.16
2018-10-01T22:24:03.237Z,78197.19
2018-10-01T22:26:32.645Z,78199.19
2018-10-01T22:29:01.849Z,78213.20
2018-10-01T22:31:30.668Z,78221.21
2018-10-01T22:33:58.997Z,78206.19
2018-10-01T22:36:27.333Z,78238.23
2018-10-01T22:38:55.688Z,78248.24
2018-10-01T22:41:24.010Z,78269.27
2018-10-01T22:43:52.337Z,78283.28
2018-10-01T22:46:20.661Z,78288.30
2018-10-01T22:48:49.017Z,78302.31
2018-10-01T22:51:17.354Z,78318.33
2018-10-01T22:53:45.669Z,78344.36
2018-10-01T22:56:13.994Z,78335.34
2018-10-01T22:58:43.238Z,78342.36
2018-10-01T23:01:11.586Z,78340.36
2018-10-01T23:03:39.916Z,78348.36
2018-10-01T23:06:09.597Z,78373.40
2018-10-01T23:08:38.976Z,78372.39
2018-10-01T23:11:09.375Z,78388.41
2018-10-01T23:13:38.648Z,78376.41
2018-10-01T23:16:08.388Z,78372.39
2018-10-01T23:18:37.464Z,78380.41
2018-10-01T23:21:07.365Z,78375.40
2018-10-01T23:23:36.323Z,78376.41
2018-10-01T23:26:06.364Z,78398.43
2018-10-01T23:28:35.751Z,78414.45
2018-10-01T23:31:05.120Z,78424.46
2018-10-01T23:33:34.346Z,78428.47
2018-10-01T23:36:03.768Z,78429.47
2018-10-01T23:38:34.612Z,78440.48
2018-10-01T23:41:03.934Z,78447.48
2018-10-01T23:43:33.348Z,78454.50
2018-10-01T23:46:03.969Z,78460.51
2018-10-01T23:48:34.759Z,78462.52
2018-10-01T23:51:03.793Z,78466.52
2018-10-01T23:53:33.045Z,78474.52
2018-10-01T23:56:03.200Z,78490.55
2018-10-01T23:58:34.036Z,78474.52
